sensor_id;sensor_type;location;lat;lon;timestamp;P1;durP1;ratioP1;P2;durP2;ratioP2
75413;SDS011;64758;52.122;5.404;2023-03-23T00:02:29;4.77;;;2.63;;
75413;SDS011;64758;52.122;5.404;2023-03-23T00:05:04;6.32;;;3.08;;
75413;SDS011;64758;52.122;5.404;2023-03-23T00:07:32;5.70;;;2.90;;
75413;SDS011;64758;52.122;5.404;2023-03-23T00:09:58;6.40;;;2.55;;
75413;SDS011;64758;52.122;5.404;2023-03-23T00:12:24;5.40;;;2.42;;
75413;SDS011;64758;52.122;5.404;2023-03-23T00:15:02;6.03;;;2.53;;
75413;SDS011;64758;52.122;5.404;2023-03-23T00:17:29;6.40;;;3.05;;
75413;SDS011;64758;52.122;5.404;2023-03-23T00:19:58;5.13;;;2.13;;
75413;SDS011;64758;52.122;5.404;2023-03-23T00:22:26;4.32;;;2.63;;
75413;SDS011;64758;52.122;5.404;2023-03-23T00:24:53;5.70;;;2.60;;
75413;SDS011;64758;52.122;5.404;2023-03-23T00:27:19;4.63;;;2.50;;
75413;SDS011;64758;52.122;5.404;2023-03-23T00:29:46;4.25;;;2.30;;
75413;SDS011;64758;52.122;5.404;2023-03-23T00:32:13;3.80;;;1.97;;
75413;SDS011;64758;52.122;5.404;2023-03-23T00:34:39;6.10;;;1.83;;
75413;SDS011;64758;52.122;5.404;2023-03-23T00:37:08;4.65;;;2.30;;
75413;SDS011;64758;52.122;5.404;2023-03-23T00:39:34;4.07;;;2.03;;
75413;SDS011;64758;52.122;5.404;2023-03-23T00:42:04;6.38;;;2.17;;
75413;SDS011;64758;52.122;5.404;2023-03-23T00:44:31;4.87;;;1.90;;
75413;SDS011;64758;52.122;5.404;2023-03-23T00:47:00;4.40;;;2.00;;
75413;SDS011;64758;52.122;5.404;2023-03-23T00:49:26;3.95;;;2.15;;
75413;SDS011;64758;52.122;5.404;2023-03-23T00:51:52;4.07;;;1.57;;
75413;SDS011;64758;52.122;5.404;2023-03-23T00:54:19;4.03;;;2.22;;
75413;SDS011;64758;52.122;5.404;2023-03-23T00:56:45;2.08;;;1.50;;
75413;SDS011;64758;52.122;5.404;2023-03-23T00:59:11;2.75;;;1.98;;
75413;SDS011;64758;52.122;5.404;2023-03-23T01:01:38;4.20;;;1.95;;
75413;SDS011;64758;52.122;5.404;2023-03-23T01:04:03;5.83;;;2.13;;
75413;SDS011;64758;52.122;5.404;2023-03-23T01:06:33;4.88;;;2.03;;
75413;SDS011;64758;52.122;5.404;2023-03-23T01:09:00;3.20;;;1.73;;
75413;SDS011;64758;52.122;5.404;2023-03-23T01:11:28;4.88;;;1.80;;
75413;SDS011;64758;52.122;5.404;2023-03-23T01:13:54;3.83;;;1.85;;
75413;SDS011;64758;52.122;5.404;2023-03-23T01:16:20;4.82;;;2.03;;
75413;SDS011;64758;52.122;5.404;2023-03-23T01:18:46;3.13;;;2.00;;
75413;SDS011;64758;52.122;5.404;2023-03-23T01:21:13;3.63;;;1.58;;
75413;SDS011;64758;52.122;5.404;2023-03-23T01:23:41;4.93;;;2.00;;
75413;SDS011;64758;52.122;5.404;2023-03-23T01:26:12;2.90;;;1.60;;
75413;SDS011;64758;52.122;5.404;2023-03-23T01:28:39;2.97;;;1.50;;
75413;SDS011;64758;52.122;5.404;2023-03-23T01:31:12;4.13;;;1.85;;
75413;SDS011;64758;52.122;5.404;2023-03-23T01:33:39;5.80;;;1.60;;
75413;SDS011;64758;52.122;5.404;2023-03-23T01:36:07;2.90;;;1.60;;
75413;SDS011;64758;52.122;5.404;2023-03-23T01:38:35;4.97;;;1.90;;
75413;SDS011;64758;52.122;5.404;2023-03-23T01:41:02;2.95;;;1.70;;
75413;SDS011;64758;52.122;5.404;2023-03-23T01:43:28;5.07;;;1.58;;
75413;SDS011;64758;52.122;5.404;2023-03-23T01:45:54;3.10;;;1.77;;
75413;SDS011;64758;52.122;5.404;2023-03-23T01:48:21;3.83;;;1.65;;
75413;SDS011;64758;52.122;5.404;2023-03-23T01:53:34;3.67;;;1.80;;
75413;SDS011;64758;52.122;5.404;2023-03-23T01:56:03;4.22;;;1.83;;
75413;SDS011;64758;52.122;5.404;2023-03-23T01:58:32;3.40;;;1.67;;
75413;SDS011;64758;52.122;5.404;2023-03-23T02:01:02;3.22;;;1.70;;
75413;SDS011;64758;52.122;5.404;2023-03-23T02:03:31;2.75;;;1.60;;
75413;SDS011;64758;52.122;5.404;2023-03-23T02:05:58;3.13;;;1.80;;
75413;SDS011;64758;52.122;5.404;2023-03-23T02:08:24;2.78;;;1.52;;
75413;SDS011;64758;52.122;5.404;2023-03-23T02:10:53;3.63;;;2.17;;
75413;SDS011;64758;52.122;5.404;2023-03-23T02:13:19;2.60;;;1.90;;
75413;SDS011;64758;52.122;5.404;2023-03-23T02:20:56;2.78;;;1.30;;
75413;SDS011;64758;52.122;5.404;2023-03-23T02:24:03;4.80;;;1.60;;
75413;SDS011;64758;52.122;5.404;2023-03-23T02:29:31;3.17;;;1.77;;
75413;SDS011;64758;52.122;5.404;2023-03-23T02:34:58;4.03;;;1.58;;
75413;SDS011;64758;52.122;5.404;2023-03-23T02:37:29;2.88;;;1.80;;
75413;SDS011;64758;52.122;5.404;2023-03-23T02:40:18;3.65;;;2.00;;
75413;SDS011;64758;52.122;5.404;2023-03-23T02:42:50;2.67;;;1.70;;
75413;SDS011;64758;52.122;5.404;2023-03-23T02:45:19;4.57;;;2.10;;
75413;SDS011;64758;52.122;5.404;2023-03-23T02:47:48;3.83;;;1.98;;
75413;SDS011;64758;52.122;5.404;2023-03-23T02:50:17;5.88;;;2.30;;
75413;SDS011;64758;52.122;5.404;2023-03-23T02:52:45;3.58;;;2.03;;
75413;SDS011;64758;52.122;5.404;2023-03-23T02:55:15;5.32;;;1.80;;
75413;SDS011;64758;52.122;5.404;2023-03-23T02:57:42;5.70;;;2.00;;
75413;SDS011;64758;52.122;5.404;2023-03-23T03:00:10;4.22;;;2.05;;
75413;SDS011;64758;52.122;5.404;2023-03-23T03:02:39;2.85;;;2.10;;
75413;SDS011;64758;52.122;5.404;2023-03-23T03:05:18;4.38;;;1.95;;
75413;SDS011;64758;52.122;5.404;2023-03-23T03:13:36;4.30;;;1.92;;
75413;SDS011;64758;52.122;5.404;2023-03-23T03:18:54;5.45;;;1.80;;
75413;SDS011;64758;52.122;5.404;2023-03-23T03:21:28;2.88;;;1.55;;
75413;SDS011;64758;52.122;5.404;2023-03-23T03:23:56;2.80;;;1.60;;
75413;SDS011;64758;52.122;5.404;2023-03-23T03:26:26;2.80;;;1.60;;
75413;SDS011;64758;52.122;5.404;2023-03-23T03:28:52;3.45;;;1.90;;
75413;SDS011;64758;52.122;5.404;2023-03-23T03:31:21;2.55;;;1.40;;
75413;SDS011;64758;52.122;5.404;2023-03-23T03:33:51;5.55;;;2.30;;
75413;SDS011;64758;52.122;5.404;2023-03-23T03:36:18;3.00;;;1.20;;
75413;SDS011;64758;52.122;5.404;2023-03-23T03:38:47;3.58;;;1.60;;
75413;SDS011;64758;52.122;5.404;2023-03-23T03:41:15;2.67;;;0.95;;
75413;SDS011;64758;52.122;5.404;2023-03-23T03:43:40;3.43;;;1.17;;
75413;SDS011;64758;52.122;5.404;2023-03-23T03:46:06;2.28;;;1.13;;
75413;SDS011;64758;52.122;5.404;2023-03-23T03:48:32;3.50;;;1.10;;
75413;SDS011;64758;52.122;5.404;2023-03-23T03:50:57;2.13;;;1.08;;
75413;SDS011;64758;52.122;5.404;2023-03-23T03:53:25;4.77;;;1.60;;
75413;SDS011;64758;52.122;5.404;2023-03-23T03:55:51;4.60;;;1.42;;
75413;SDS011;64758;52.122;5.404;2023-03-23T03:58:21;2.80;;;1.02;;
75413;SDS011;64758;52.122;5.404;2023-03-23T04:00:46;1.65;;;0.90;;
75413;SDS011;64758;52.122;5.404;2023-03-23T04:03:15;4.43;;;1.30;;
75413;SDS011;64758;52.122;5.404;2023-03-23T04:05:41;2.67;;;1.03;;
75413;SDS011;64758;52.122;5.404;2023-03-23T04:08:09;1.83;;;0.93;;
75413;SDS011;64758;52.122;5.404;2023-03-23T04:10:36;4.18;;;1.10;;
75413;SDS011;64758;52.122;5.404;2023-03-23T04:13:02;4.03;;;0.95;;
75413;SDS011;64758;52.122;5.404;2023-03-23T04:15:29;2.65;;;1.02;;
75413;SDS011;64758;52.122;5.404;2023-03-23T04:17:55;2.23;;;0.90;;
75413;SDS011;64758;52.122;5.404;2023-03-23T04:20:22;2.70;;;0.80;;
75413;SDS011;64758;52.122;5.404;2023-03-23T04:22:48;5.40;;;1.13;;
75413;SDS011;64758;52.122;5.404;2023-03-23T04:25:18;7.53;;;1.25;;
75413;SDS011;64758;52.122;5.404;2023-03-23T04:27:48;4.57;;;1.13;;
75413;SDS011;64758;52.122;5.404;2023-03-23T04:30:18;3.90;;;1.33;;
75413;SDS011;64758;52.122;5.404;2023-03-23T04:32:46;3.92;;;1.10;;
75413;SDS011;64758;52.122;5.404;2023-03-23T04:35:15;4.05;;;1.00;;
75413;SDS011;64758;52.122;5.404;2023-03-23T04:37:42;4.38;;;1.00;;
75413;SDS011;64758;52.122;5.404;2023-03-23T04:40:08;6.70;;;1.17;;
75413;SDS011;64758;52.122;5.404;2023-03-23T04:42:37;11.75;;;0.95;;
75413;SDS011;64758;52.122;5.404;2023-03-23T04:45:04;7.03;;;1.50;;
75413;SDS011;64758;52.122;5.404;2023-03-23T04:47:32;2.85;;;0.68;;
75413;SDS011;64758;52.122;5.404;2023-03-23T04:50:06;3.50;;;0.90;;
75413;SDS011;64758;52.122;5.404;2023-03-23T04:52:37;4.90;;;0.83;;
75413;SDS011;64758;52.122;5.404;2023-03-23T04:55:07;5.03;;;0.80;;
75413;SDS011;64758;52.122;5.404;2023-03-23T04:57:34;7.40;;;0.90;;
75413;SDS011;64758;52.122;5.404;2023-03-23T05:00:00;6.28;;;0.60;;
75413;SDS011;64758;52.122;5.404;2023-03-23T05:02:33;3.50;;;0.60;;
75413;SDS011;64758;52.122;5.404;2023-03-23T05:05:00;2.33;;;0.70;;
75413;SDS011;64758;52.122;5.404;2023-03-23T05:07:26;3.92;;;0.60;;
75413;SDS011;64758;52.122;5.404;2023-03-23T05:09:51;3.90;;;0.97;;
75413;SDS011;64758;52.122;5.404;2023-03-23T05:12:17;5.88;;;0.70;;
75413;SDS011;64758;52.122;5.404;2023-03-23T05:14:43;6.00;;;1.43;;
75413;SDS011;64758;52.122;5.404;2023-03-23T05:17:08;5.87;;;0.80;;
75413;SDS011;64758;52.122;5.404;2023-03-23T05:19:34;4.70;;;0.60;;
75413;SDS011;64758;52.122;5.404;2023-03-23T05:22:01;4.93;;;0.75;;
75413;SDS011;64758;52.122;5.404;2023-03-23T05:24:29;4.00;;;0.95;;
75413;SDS011;64758;52.122;5.404;2023-03-23T05:26:58;4.57;;;0.90;;
75413;SDS011;64758;52.122;5.404;2023-03-23T05:29:24;4.65;;;0.52;;
75413;SDS011;64758;52.122;5.404;2023-03-23T05:31:50;7.32;;;1.23;;
75413;SDS011;64758;52.122;5.404;2023-03-23T05:34:18;7.63;;;1.05;;
75413;SDS011;64758;52.122;5.404;2023-03-23T05:36:44;3.53;;;0.80;;
75413;SDS011;64758;52.122;5.404;2023-03-23T05:39:10;2.17;;;0.70;;
75413;SDS011;64758;52.122;5.404;2023-03-23T05:41:38;3.67;;;0.65;;
75413;SDS011;64758;52.122;5.404;2023-03-23T05:44:04;6.90;;;0.80;;
75413;SDS011;64758;52.122;5.404;2023-03-23T05:46:29;6.57;;;1.07;;
75413;SDS011;64758;52.122;5.404;2023-03-23T05:48:55;5.30;;;0.70;;
75413;SDS011;64758;52.122;5.404;2023-03-23T05:51:21;5.60;;;0.67;;
75413;SDS011;64758;52.122;5.404;2023-03-23T05:53:46;5.77;;;0.80;;
75413;SDS011;64758;52.122;5.404;2023-03-23T05:56:13;4.93;;;0.73;;
75413;SDS011;64758;52.122;5.404;2023-03-23T05:58:39;6.50;;;1.13;;
75413;SDS011;64758;52.122;5.404;2023-03-23T06:01:08;7.70;;;1.00;;
75413;SDS011;64758;52.122;5.404;2023-03-23T06:03:33;5.95;;;0.88;;
75413;SDS011;64758;52.122;5.404;2023-03-23T06:06:02;6.05;;;1.25;;
75413;SDS011;64758;52.122;5.404;2023-03-23T06:08:28;3.80;;;1.02;;
75413;SDS011;64758;52.122;5.404;2023-03-23T06:10:55;5.82;;;0.60;;
75413;SDS011;64758;52.122;5.404;2023-03-23T06:13:22;3.87;;;0.50;;
75413;SDS011;64758;52.122;5.404;2023-03-23T06:15:48;9.52;;;1.08;;
75413;SDS011;64758;52.122;5.404;2023-03-23T06:18:14;9.18;;;1.10;;
75413;SDS011;64758;52.122;5.404;2023-03-23T06:20:39;7.13;;;0.97;;
75413;SDS011;64758;52.122;5.404;2023-03-23T06:23:05;5.63;;;1.45;;
75413;SDS011;64758;52.122;5.404;2023-03-23T06:25:33;6.53;;;1.15;;
75413;SDS011;64758;52.122;5.404;2023-03-23T06:27:59;3.30;;;0.95;;
75413;SDS011;64758;52.122;5.404;2023-03-23T06:30:25;8.83;;;1.07;;
75413;SDS011;64758;52.122;5.404;2023-03-23T06:32:52;3.70;;;0.90;;
75413;SDS011;64758;52.122;5.404;2023-03-23T06:35:18;5.50;;;0.93;;
75413;SDS011;64758;52.122;5.404;2023-03-23T06:37:43;11.10;;;1.30;;
75413;SDS011;64758;52.122;5.404;2023-03-23T06:40:09;4.73;;;0.97;;
75413;SDS011;64758;52.122;5.404;2023-03-23T06:42:35;8.10;;;1.15;;
75413;SDS011;64758;52.122;5.404;2023-03-23T06:45:02;7.23;;;1.27;;
75413;SDS011;64758;52.122;5.404;2023-03-23T06:47:29;4.07;;;0.85;;
75413;SDS011;64758;52.122;5.404;2023-03-23T06:49:55;4.05;;;0.75;;
75413;SDS011;64758;52.122;5.404;2023-03-23T06:52:21;6.43;;;1.77;;
75413;SDS011;64758;52.122;5.404;2023-03-23T06:54:48;4.50;;;1.00;;
75413;SDS011;64758;52.122;5.404;2023-03-23T06:57:17;4.70;;;0.95;;
75413;SDS011;64758;52.122;5.404;2023-03-23T06:59:42;5.07;;;1.25;;
75413;SDS011;64758;52.122;5.404;2023-03-23T07:02:12;5.50;;;0.93;;
75413;SDS011;64758;52.122;5.404;2023-03-23T07:04:39;8.55;;;1.23;;
75413;SDS011;64758;52.122;5.404;2023-03-23T07:07:07;4.53;;;0.80;;
75413;SDS011;64758;52.122;5.404;2023-03-23T07:09:33;7.45;;;1.00;;
75413;SDS011;64758;52.122;5.404;2023-03-23T07:11:58;8.83;;;1.03;;
75413;SDS011;64758;52.122;5.404;2023-03-23T07:14:24;4.53;;;1.07;;
75413;SDS011;64758;52.122;5.404;2023-03-23T07:16:49;5.10;;;1.20;;
75413;SDS011;64758;52.122;5.404;2023-03-23T07:19:15;7.20;;;1.00;;
75413;SDS011;64758;52.122;5.404;2023-03-23T07:21:41;9.50;;;1.13;;
75413;SDS011;64758;52.122;5.404;2023-03-23T07:24:09;5.32;;;1.10;;
75413;SDS011;64758;52.122;5.404;2023-03-23T07:26:41;4.30;;;1.50;;
75413;SDS011;64758;52.122;5.404;2023-03-23T07:29:08;8.02;;;0.98;;
75413;SDS011;64758;52.122;5.404;2023-03-23T07:31:34;10.65;;;1.45;;
75413;SDS011;64758;52.122;5.404;2023-03-23T07:34:00;6.88;;;1.38;;
75413;SDS011;64758;52.122;5.404;2023-03-23T07:36:28;4.53;;;0.73;;
75413;SDS011;64758;52.122;5.404;2023-03-23T07:38:53;5.22;;;0.98;;
75413;SDS011;64758;52.122;5.404;2023-03-23T07:41:20;5.72;;;0.88;;
75413;SDS011;64758;52.122;5.404;2023-03-23T07:43:45;4.30;;;1.00;;
75413;SDS011;64758;52.122;5.404;2023-03-23T07:46:11;5.85;;;0.75;;
75413;SDS011;64758;52.122;5.404;2023-03-23T07:48:38;4.22;;;0.90;;
75413;SDS011;64758;52.122;5.404;2023-03-23T07:51:04;7.90;;;0.77;;
75413;SDS011;64758;52.122;5.404;2023-03-23T07:53:30;7.22;;;0.90;;
75413;SDS011;64758;52.122;5.404;2023-03-23T07:55:56;7.80;;;0.75;;
75413;SDS011;64758;52.122;5.404;2023-03-23T07:58:21;3.22;;;1.10;;
75413;SDS011;64758;52.122;5.404;2023-03-23T08:00:47;5.07;;;0.87;;
75413;SDS011;64758;52.122;5.404;2023-03-23T08:03:14;2.72;;;0.70;;
75413;SDS011;64758;52.122;5.404;2023-03-23T08:05:40;4.55;;;1.33;;
75413;SDS011;64758;52.122;5.404;2023-03-23T08:08:08;5.47;;;0.88;;
75413;SDS011;64758;52.122;5.404;2023-03-23T08:10:34;5.90;;;1.10;;
75413;SDS011;64758;52.122;5.404;2023-03-23T08:13:00;6.23;;;1.17;;
75413;SDS011;64758;52.122;5.404;2023-03-23T08:15:26;5.85;;;1.00;;
75413;SDS011;64758;52.122;5.404;2023-03-23T08:17:53;3.42;;;1.27;;
75413;SDS011;64758;52.122;5.404;2023-03-23T08:20:20;6.68;;;1.20;;
75413;SDS011;64758;52.122;5.404;2023-03-23T08:22:52;7.22;;;1.33;;
75413;SDS011;64758;52.122;5.404;2023-03-23T08:25:20;2.93;;;0.80;;
75413;SDS011;64758;52.122;5.404;2023-03-23T08:27:47;9.45;;;1.50;;
75413;SDS011;64758;52.122;5.404;2023-03-23T08:30:14;7.53;;;1.10;;
75413;SDS011;64758;52.122;5.404;2023-03-23T08:32:41;4.97;;;0.80;;
75413;SDS011;64758;52.122;5.404;2023-03-23T08:35:08;4.33;;;1.00;;
75413;SDS011;64758;52.122;5.404;2023-03-23T08:37:36;7.00;;;1.50;;
75413;SDS011;64758;52.122;5.404;2023-03-23T08:40:03;5.03;;;1.00;;
75413;SDS011;64758;52.122;5.404;2023-03-23T08:42:34;5.63;;;1.23;;
75413;SDS011;64758;52.122;5.404;2023-03-23T08:44:59;9.43;;;1.33;;
75413;SDS011;64758;52.122;5.404;2023-03-23T08:47:26;4.00;;;0.77;;
75413;SDS011;64758;52.122;5.404;2023-03-23T08:49:51;5.50;;;1.02;;
75413;SDS011;64758;52.122;5.404;2023-03-23T08:52:19;5.38;;;1.23;;
75413;SDS011;64758;52.122;5.404;2023-03-23T08:54:44;4.32;;;1.27;;
75413;SDS011;64758;52.122;5.404;2023-03-23T08:57:12;3.30;;;1.15;;
75413;SDS011;64758;52.122;5.404;2023-03-23T08:59:39;8.53;;;1.50;;
75413;SDS011;64758;52.122;5.404;2023-03-23T09:02:05;7.85;;;1.15;;
75413;SDS011;64758;52.122;5.404;2023-03-23T09:04:31;3.97;;;1.10;;
75413;SDS011;64758;52.122;5.404;2023-03-23T09:06:57;4.33;;;0.60;;
75413;SDS011;64758;52.122;5.404;2023-03-23T09:09:23;5.10;;;1.58;;
75413;SDS011;64758;52.122;5.404;2023-03-23T09:11:48;7.03;;;1.10;;
75413;SDS011;64758;52.122;5.404;2023-03-23T09:14:15;6.40;;;1.23;;
75413;SDS011;64758;52.122;5.404;2023-03-23T09:16:40;6.32;;;1.48;;
75413;SDS011;64758;52.122;5.404;2023-03-23T09:19:06;9.33;;;1.70;;
75413;SDS011;64758;52.122;5.404;2023-03-23T09:21:33;5.30;;;0.88;;
75413;SDS011;64758;52.122;5.404;2023-03-23T09:23:59;5.37;;;1.20;;
75413;SDS011;64758;52.122;5.404;2023-03-23T09:26:26;4.90;;;0.95;;
75413;SDS011;64758;52.122;5.404;2023-03-23T09:28:52;6.37;;;1.03;;
75413;SDS011;64758;52.122;5.404;2023-03-23T09:31:18;4.05;;;0.88;;
75413;SDS011;64758;52.122;5.404;2023-03-23T09:33:45;2.65;;;1.02;;
75413;SDS011;64758;52.122;5.404;2023-03-23T09:36:11;7.22;;;1.08;;
75413;SDS011;64758;52.122;5.404;2023-03-23T09:38:39;5.77;;;1.30;;
75413;SDS011;64758;52.122;5.404;2023-03-23T09:43:57;8.68;;;0.93;;
75413;SDS011;64758;52.122;5.404;2023-03-23T09:46:34;5.45;;;1.00;;
75413;SDS011;64758;52.122;5.404;2023-03-23T09:49:11;5.63;;;1.17;;
75413;SDS011;64758;52.122;5.404;2023-03-23T09:51:44;7.93;;;1.07;;
75413;SDS011;64758;52.122;5.404;2023-03-23T09:54:18;11.23;;;1.38;;
75413;SDS011;64758;52.122;5.404;2023-03-23T09:56:48;6.00;;;0.77;;
75413;SDS011;64758;52.122;5.404;2023-03-23T10:01:52;4.82;;;0.88;;
75413;SDS011;64758;52.122;5.404;2023-03-23T10:04:33;7.50;;;1.80;;
75413;SDS011;64758;52.122;5.404;2023-03-23T10:07:13;3.97;;;0.85;;
75413;SDS011;64758;52.122;5.404;2023-03-23T10:09:42;5.68;;;0.93;;
75413;SDS011;64758;52.122;5.404;2023-03-23T10:12:14;8.02;;;1.27;;
75413;SDS011;64758;52.122;5.404;2023-03-23T10:28:43;5.05;;;0.82;;
75413;SDS011;64758;52.122;5.404;2023-03-23T10:31:14;7.57;;;1.00;;
75413;SDS011;64758;52.122;5.404;2023-03-23T10:33:44;5.57;;;1.23;;
75413;SDS011;64758;52.122;5.404;2023-03-23T10:39:18;9.73;;;1.20;;
75413;SDS011;64758;52.122;5.404;2023-03-23T10:41:42;7.75;;;0.82;;
75413;SDS011;64758;52.122;5.404;2023-03-23T10:44:09;6.47;;;0.90;;
75413;SDS011;64758;52.122;5.404;2023-03-23T10:46:53;7.70;;;1.05;;
75413;SDS011;64758;52.122;5.404;2023-03-23T10:49:26;4.13;;;1.20;;
75413;SDS011;64758;52.122;5.404;2023-03-23T10:52:39;6.95;;;1.15;;
75413;SDS011;64758;52.122;5.404;2023-03-23T10:55:20;5.90;;;1.10;;
75413;SDS011;64758;52.122;5.404;2023-03-23T10:58:01;5.53;;;1.23;;
75413;SDS011;64758;52.122;5.404;2023-03-23T11:00:29;8.73;;;1.15;;
75413;SDS011;64758;52.122;5.404;2023-03-23T11:03:04;6.90;;;0.80;;
75413;SDS011;64758;52.122;5.404;2023-03-23T11:05:34;6.10;;;0.93;;
75413;SDS011;64758;52.122;5.404;2023-03-23T11:08:01;9.13;;;0.90;;
75413;SDS011;64758;52.122;5.404;2023-03-23T11:10:35;6.80;;;0.93;;
75413;SDS011;64758;52.122;5.404;2023-03-23T11:13:03;6.50;;;0.90;;
75413;SDS011;64758;52.122;5.404;2023-03-23T11:15:34;7.47;;;0.93;;
75413;SDS011;64758;52.122;5.404;2023-03-23T11:18:11;3.87;;;1.00;;
75413;SDS011;64758;52.122;5.404;2023-03-23T11:20:43;4.53;;;1.20;;
75413;SDS011;64758;52.122;5.404;2023-03-23T11:23:22;7.93;;;1.08;;
75413;SDS011;64758;52.122;5.404;2023-03-23T11:26:10;4.03;;;0.55;;
75413;SDS011;64758;52.122;5.404;2023-03-23T11:28:51;7.05;;;1.10;;
75413;SDS011;64758;52.122;5.404;2023-03-23T11:31:41;6.47;;;1.10;;
75413;SDS011;64758;52.122;5.404;2023-03-23T11:34:11;4.72;;;0.90;;
75413;SDS011;64758;52.122;5.404;2023-03-23T11:36:42;8.77;;;1.48;;
75413;SDS011;64758;52.122;5.404;2023-03-23T11:41:51;6.78;;;0.90;;
75413;SDS011;64758;52.122;5.404;2023-03-23T11:44:18;5.97;;;1.33;;
75413;SDS011;64758;52.122;5.404;2023-03-23T11:46:48;7.03;;;0.90;;
75413;SDS011;64758;52.122;5.404;2023-03-23T11:49:18;6.80;;;0.70;;
75413;SDS011;64758;52.122;5.404;2023-03-23T11:51:55;5.70;;;1.48;;
75413;SDS011;64758;52.122;5.404;2023-03-23T11:54:30;10.65;;;1.10;;
75413;SDS011;64758;52.122;5.404;2023-03-23T11:56:59;8.37;;;0.80;;
75413;SDS011;64758;52.122;5.404;2023-03-23T12:01:58;6.07;;;0.87;;
75413;SDS011;64758;52.122;5.404;2023-03-23T12:08:00;5.45;;;1.08;;
75413;SDS011;64758;52.122;5.404;2023-03-23T12:16:08;8.93;;;1.10;;
75413;SDS011;64758;52.122;5.404;2023-03-23T12:18:47;7.53;;;1.10;;
75413;SDS011;64758;52.122;5.404;2023-03-23T12:26:39;4.93;;;0.82;;
75413;SDS011;64758;52.122;5.404;2023-03-23T12:42:28;7.33;;;0.80;;
75413;SDS011;64758;52.122;5.404;2023-03-23T12:47:51;8.63;;;0.85;;
75413;SDS011;64758;52.122;5.404;2023-03-23T12:52:59;6.68;;;0.85;;
75413;SDS011;64758;52.122;5.404;2023-03-23T12:55:36;6.97;;;0.83;;
75413;SDS011;64758;52.122;5.404;2023-03-23T13:01:03;5.80;;;0.80;;
75413;SDS011;64758;52.122;5.404;2023-03-23T13:03:54;4.25;;;0.80;;
75413;SDS011;64758;52.122;5.404;2023-03-23T13:12:22;6.75;;;1.20;;
75413;SDS011;64758;52.122;5.404;2023-03-23T13:17:38;4.65;;;0.75;;
75413;SDS011;64758;52.122;5.404;2023-03-23T13:20:22;4.03;;;0.50;;
75413;SDS011;64758;52.122;5.404;2023-03-23T13:23:07;4.27;;;0.80;;
75413;SDS011;64758;52.122;5.404;2023-03-23T13:28:16;5.93;;;0.77;;
75413;SDS011;64758;52.122;5.404;2023-03-23T13:33:35;6.30;;;0.98;;
75413;SDS011;64758;52.122;5.404;2023-03-23T13:36:08;3.73;;;0.77;;
75413;SDS011;64758;52.122;5.404;2023-03-23T13:38:36;3.33;;;0.80;;
75413;SDS011;64758;52.122;5.404;2023-03-23T13:41:10;7.68;;;0.90;;
75413;SDS011;64758;52.122;5.404;2023-03-23T13:43:38;5.05;;;0.68;;
75413;SDS011;64758;52.122;5.404;2023-03-23T13:48:46;5.97;;;0.85;;
75413;SDS011;64758;52.122;5.404;2023-03-23T13:54:25;4.50;;;0.63;;
75413;SDS011;64758;52.122;5.404;2023-03-23T13:59:59;4.63;;;0.83;;
75413;SDS011;64758;52.122;5.404;2023-03-23T14:02:40;4.13;;;0.55;;
75413;SDS011;64758;52.122;5.404;2023-03-23T14:07:55;5.82;;;1.00;;
75413;SDS011;64758;52.122;5.404;2023-03-23T14:13:20;3.70;;;0.67;;
75413;SDS011;64758;52.122;5.404;2023-03-23T14:18:29;2.97;;;0.70;;
75413;SDS011;64758;52.122;5.404;2023-03-23T14:20:57;3.35;;;0.70;;
75413;SDS011;64758;52.122;5.404;2023-03-23T14:23:24;3.95;;;0.75;;
75413;SDS011;64758;52.122;5.404;2023-03-23T14:26:00;5.37;;;0.97;;
75413;SDS011;64758;52.122;5.404;2023-03-23T14:28:41;3.20;;;0.70;;
75413;SDS011;64758;52.122;5.404;2023-03-23T14:31:17;3.40;;;0.60;;
75413;SDS011;64758;52.122;5.404;2023-03-23T14:33:45;6.47;;;1.13;;
75413;SDS011;64758;52.122;5.404;2023-03-23T14:36:13;7.22;;;1.00;;
75413;SDS011;64758;52.122;5.404;2023-03-23T14:38:40;4.63;;;0.90;;
75413;SDS011;64758;52.122;5.404;2023-03-23T14:41:05;5.03;;;1.00;;
75413;SDS011;64758;52.122;5.404;2023-03-23T14:43:32;6.72;;;1.77;;
75413;SDS011;64758;52.122;5.404;2023-03-23T14:46:00;3.65;;;0.93;;
75413;SDS011;64758;52.122;5.404;2023-03-23T14:48:30;3.17;;;0.88;;
75413;SDS011;64758;52.122;5.404;2023-03-23T14:50:59;3.87;;;0.70;;
75413;SDS011;64758;52.122;5.404;2023-03-23T14:53:31;6.55;;;1.15;;
75413;SDS011;64758;52.122;5.404;2023-03-23T14:56:33;3.58;;;0.80;;
75413;SDS011;64758;52.122;5.404;2023-03-23T14:58:52;8.15;;;0.88;;
75413;SDS011;64758;52.122;5.404;2023-03-23T15:03:56;3.67;;;1.05;;
75413;SDS011;64758;52.122;5.404;2023-03-23T15:06:33;3.45;;;0.80;;
75413;SDS011;64758;52.122;5.404;2023-03-23T15:09:02;6.00;;;1.00;;
75413;SDS011;64758;52.122;5.404;2023-03-23T15:11:37;5.03;;;1.10;;
75413;SDS011;64758;52.122;5.404;2023-03-23T15:16:44;6.28;;;1.05;;
75413;SDS011;64758;52.122;5.404;2023-03-23T15:19:15;5.75;;;1.20;;
75413;SDS011;64758;52.122;5.404;2023-03-23T15:21:48;4.38;;;1.00;;
75413;SDS011;64758;52.122;5.404;2023-03-23T15:27:33;7.23;;;1.30;;
75413;SDS011;64758;52.122;5.404;2023-03-23T15:30:11;5.22;;;1.00;;
75413;SDS011;64758;52.122;5.404;2023-03-23T15:32:52;6.40;;;1.13;;
75413;SDS011;64758;52.122;5.404;2023-03-23T15:35:22;5.93;;;0.90;;
75413;SDS011;64758;52.122;5.404;2023-03-23T15:38:04;7.57;;;1.08;;
75413;SDS011;64758;52.122;5.404;2023-03-23T15:40:37;6.10;;;1.10;;
75413;SDS011;64758;52.122;5.404;2023-03-23T15:43:24;7.80;;;1.25;;
75413;SDS011;64758;52.122;5.404;2023-03-23T15:45:57;5.05;;;0.73;;
75413;SDS011;64758;52.122;5.404;2023-03-23T15:48:45;4.85;;;1.00;;
75413;SDS011;64758;52.122;5.404;2023-03-23T15:51:14;8.48;;;1.45;;
75413;SDS011;64758;52.122;5.404;2023-03-23T15:53:41;4.63;;;0.93;;
75413;SDS011;64758;52.122;5.404;2023-03-23T15:56:07;4.20;;;0.80;;
75413;SDS011;64758;52.122;5.404;2023-03-23T15:58:35;6.57;;;1.30;;
75413;SDS011;64758;52.122;5.404;2023-03-23T16:01:03;5.38;;;0.90;;
75413;SDS011;64758;52.122;5.404;2023-03-23T16:03:45;4.30;;;1.20;;
75413;SDS011;64758;52.122;5.404;2023-03-23T16:06:15;3.55;;;0.90;;
75413;SDS011;64758;52.122;5.404;2023-03-23T16:08:51;7.03;;;1.15;;
75413;SDS011;64758;52.122;5.404;2023-03-23T16:11:20;5.33;;;1.00;;
75413;SDS011;64758;52.122;5.404;2023-03-23T16:13:49;3.90;;;0.80;;
75413;SDS011;64758;52.122;5.404;2023-03-23T16:16:23;7.15;;;0.90;;
75413;SDS011;64758;52.122;5.404;2023-03-23T16:18:52;6.82;;;1.13;;
75413;SDS011;64758;52.122;5.404;2023-03-23T16:21:19;7.55;;;1.40;;
75413;SDS011;64758;52.122;5.404;2023-03-23T16:23:46;4.87;;;0.80;;
75413;SDS011;64758;52.122;5.404;2023-03-23T16:26:13;7.40;;;1.27;;
75413;SDS011;64758;52.122;5.404;2023-03-23T16:28:41;5.68;;;1.30;;
75413;SDS011;64758;52.122;5.404;2023-03-23T16:31:08;5.10;;;0.80;;
75413;SDS011;64758;52.122;5.404;2023-03-23T16:33:35;4.50;;;1.20;;
75413;SDS011;64758;52.122;5.404;2023-03-23T16:36:02;7.83;;;1.40;;
75413;SDS011;64758;52.122;5.404;2023-03-23T16:38:29;5.35;;;1.50;;
75413;SDS011;64758;52.122;5.404;2023-03-23T16:40:56;6.70;;;1.27;;
75413;SDS011;64758;52.122;5.404;2023-03-23T16:43:22;4.65;;;0.95;;
75413;SDS011;64758;52.122;5.404;2023-03-23T16:45:49;5.80;;;1.05;;
75413;SDS011;64758;52.122;5.404;2023-03-23T16:48:15;6.50;;;1.20;;
75413;SDS011;64758;52.122;5.404;2023-03-23T16:50:43;7.93;;;1.23;;
75413;SDS011;64758;52.122;5.404;2023-03-23T16:53:10;9.13;;;2.78;;
75413;SDS011;64758;52.122;5.404;2023-03-23T16:55:37;4.70;;;1.20;;
75413;SDS011;64758;52.122;5.404;2023-03-23T16:58:04;5.97;;;1.60;;
75413;SDS011;64758;52.122;5.404;2023-03-23T17:00:43;8.17;;;2.03;;
75413;SDS011;64758;52.122;5.404;2023-03-23T17:03:14;8.13;;;1.33;;
75413;SDS011;64758;52.122;5.404;2023-03-23T17:05:43;7.13;;;1.58;;
75413;SDS011;64758;52.122;5.404;2023-03-23T17:08:10;8.00;;;1.27;;